Sprague, Nebraska
Current Conditions -  °F | °C
As of 7:39 PM on Wednesday 26 Nov 2014 (Local Time) from KLNK Reporting Station
Scattered Clouds Scattered Clouds  
Wind Chill: 12°   Ceiling: Unl
Heat Index: 25°   Visibility: 10mi
Dew Point: 17°   Wind: 16mph
Humidity: 72%   Direction: 340°NNW
Pressure: 30.41"   Gusts: NA
Location:  40.63°N, 96.74°W
Report Text: KLNK 270139Z 34014KT 10SM SCT018 M04/M08 A3041 RMK AO2 T10391083
Loading
Personal Weather Stations






























Interactive Weather Map New forecast layout! Learn more

10-Day Weather Forecast

Advertisements
Track Severe Weather on mobile